sensor_id;sensor_type;location;lat;lon;timestamp;temperature;humidity
14154;DHT22;7157;53.144;7.570;2023-03-01T00:00:06;0.03;80.35
14154;DHT22;7157;53.144;7.570;2023-03-01T00:10:11;-0.10;81.66
14154;DHT22;7157;53.144;7.570;2023-03-01T00:20:14;-0.14;82.07
14154;DHT22;7157;53.144;7.570;2023-03-01T00:30:18;-0.14;82.38
14154;DHT22;7157;53.144;7.570;2023-03-01T00:40:20;-0.09;83.03
14154;DHT22;7157;53.144;7.570;2023-03-01T00:50:25;-0.00;82.70
14154;DHT22;7157;53.144;7.570;2023-03-01T01:00:28;-0.07;82.61
14154;DHT22;7157;53.144;7.570;2023-03-01T01:10:33;-0.20;83.60
14154;DHT22;7157;53.144;7.570;2023-03-01T01:20:36;-0.17;83.74
14154;DHT22;7157;53.144;7.570;2023-03-01T01:30:40;-0.24;83.35
14154;DHT22;7157;53.144;7.570;2023-03-01T01:40:43;-0.44;84.38
14154;DHT22;7157;53.144;7.570;2023-03-01T01:50:54;-0.47;83.48
14154;DHT22;7157;53.144;7.570;2023-03-01T02:00:57;-0.67;83.37
14154;DHT22;7157;53.144;7.570;2023-03-01T02:11:04;-0.82;83.44
14154;DHT22;7157;53.144;7.570;2023-03-01T02:21:26;-0.85;83.34
14154;DHT22;7157;53.144;7.570;2023-03-01T02:31:32;-1.02;83.38
14154;DHT22;7157;53.144;7.570;2023-03-01T02:41:48;-1.00;83.53
14154;DHT22;7157;53.144;7.570;2023-03-01T02:52:01;-1.09;83.60
14154;DHT22;7157;53.144;7.570;2023-03-01T03:02:18;-1.13;83.36
14154;DHT22;7157;53.144;7.570;2023-03-01T03:12:23;-1.23;84.06
14154;DHT22;7157;53.144;7.570;2023-03-01T03:22:26;-1.17;83.29
14154;DHT22;7157;53.144;7.570;2023-03-01T03:32:31;-1.27;83.26
14154;DHT22;7157;53.144;7.570;2023-03-01T03:42:34;-1.38;83.49
14154;DHT22;7157;53.144;7.570;2023-03-01T03:52:38;-1.43;83.54
14154;DHT22;7157;53.144;7.570;2023-03-01T04:02:41;-1.52;84.41
14154;DHT22;7157;53.144;7.570;2023-03-01T04:12:45;-1.40;83.46
14154;DHT22;7157;53.144;7.570;2023-03-01T04:22:48;-1.64;84.07
14154;DHT22;7157;53.144;7.570;2023-03-01T04:32:52;-1.73;84.91
14154;DHT22;7157;53.144;7.570;2023-03-01T04:42:54;-1.57;85.50
14154;DHT22;7157;53.144;7.570;2023-03-01T04:52:58;-1.47;87.10
14154;DHT22;7157;53.144;7.570;2023-03-01T05:03:01;-1.50;88.96
14154;DHT22;7157;53.144;7.570;2023-03-01T05:13:06;-1.46;90.38
14154;DHT22;7157;53.144;7.570;2023-03-01T05:23:08;-1.46;91.01
14154;DHT22;7157;53.144;7.570;2023-03-01T05:33:13;-1.46;91.46
14154;DHT22;7157;53.144;7.570;2023-03-01T05:43:17;-1.58;92.47
14154;DHT22;7157;53.144;7.570;2023-03-01T05:53:21;-1.62;94.02
14154;DHT22;7157;53.144;7.570;2023-03-01T06:03:24;-1.72;95.83
14154;DHT22;7157;53.144;7.570;2023-03-01T06:13:28;-1.62;96.01
14154;DHT22;7157;53.144;7.570;2023-03-01T06:23:31;-1.61;96.10
14154;DHT22;7157;53.144;7.570;2023-03-01T06:33:35;-1.61;95.20
14154;DHT22;7157;53.144;7.570;2023-03-01T06:43:38;-1.61;94.61
14154;DHT22;7157;53.144;7.570;2023-03-01T06:53:42;-1.74;95.91
14154;DHT22;7157;53.144;7.570;2023-03-01T07:03:45;-1.57;94.32
14154;DHT22;7157;53.144;7.570;2023-03-01T07:13:49;-1.41;94.04
14154;DHT22;7157;53.144;7.570;2023-03-01T07:23:51;-1.38;93.32
14154;DHT22;7157;53.144;7.570;2023-03-01T07:33:55;-1.26;93.49
14154;DHT22;7157;53.144;7.570;2023-03-01T07:43:58;-1.09;92.98
14154;DHT22;7157;53.144;7.570;2023-03-01T07:54:03;-0.95;92.45
14154;DHT22;7157;53.144;7.570;2023-03-01T08:04:07;-0.64;92.69
14154;DHT22;7157;53.144;7.570;2023-03-01T08:14:11;-0.50;93.48
14154;DHT22;7157;53.144;7.570;2023-03-01T08:24:14;-0.22;93.40
14154;DHT22;7157;53.144;7.570;2023-03-01T08:34:18;0.12;92.31
14154;DHT22;7157;53.144;7.570;2023-03-01T08:44:20;0.65;91.84
14154;DHT22;7157;53.144;7.570;2023-03-01T08:54:24;0.97;91.57
14154;DHT22;7157;53.144;7.570;2023-03-01T09:04:27;1.19;91.89
14154;DHT22;7157;53.144;7.570;2023-03-01T09:14:31;1.13;92.69
14154;DHT22;7157;53.144;7.570;2023-03-01T09:24:34;1.45;92.56
14154;DHT22;7157;53.144;7.570;2023-03-01T09:34:38;1.80;92.58
14154;DHT22;7157;53.144;7.570;2023-03-01T09:44:57;2.14;93.24
14154;DHT22;7157;53.144;7.570;2023-03-01T09:55:10;2.37;92.97
14154;DHT22;7157;53.144;7.570;2023-03-01T10:05:27;2.94;92.74
14154;DHT22;7157;53.144;7.570;2023-03-01T10:15:35;3.61;91.20
14154;DHT22;7157;53.144;7.570;2023-03-01T10:25:51;4.08;90.24
14154;DHT22;7157;53.144;7.570;2023-03-01T10:35:57;4.64;87.28
14154;DHT22;7157;53.144;7.570;2023-03-01T10:46:00;5.34;85.73
14154;DHT22;7157;53.144;7.570;2023-03-01T10:56:06;5.52;79.30
14154;DHT22;7157;53.144;7.570;2023-03-01T11:06:20;5.84;77.30
14154;DHT22;7157;53.144;7.570;2023-03-01T11:16:35;6.72;76.05
14154;DHT22;7157;53.144;7.570;2023-03-01T11:26:41;7.64;71.91
14154;DHT22;7157;53.144;7.570;2023-03-01T11:36:50;18.29;47.51
14154;DHT22;7157;53.144;7.570;2023-03-01T11:47:07;26.90;26.42
14154;DHT22;7157;53.144;7.570;2023-03-01T11:57:22;29.78;20.82
14154;DHT22;7157;53.144;7.570;2023-03-01T12:07:46;30.33;17.81
14154;DHT22;7157;53.144;7.570;2023-03-01T12:28:48;28.72;18.25
14154;DHT22;7157;53.144;7.570;2023-03-01T12:38:59;29.16;16.35
14154;DHT22;7157;53.144;7.570;2023-03-01T12:49:10;27.50;18.41
14154;DHT22;7157;53.144;7.570;2023-03-01T12:59:18;22.98;24.60
14154;DHT22;7157;53.144;7.570;2023-03-01T13:09:29;19.46;29.74
14154;DHT22;7157;53.144;7.570;2023-03-01T13:19:34;21.55;27.62
14154;DHT22;7157;53.144;7.570;2023-03-01T13:29:46;19.27;31.36
14154;DHT22;7157;53.144;7.570;2023-03-01T13:39:48;17.80;33.26
14154;DHT22;7157;53.144;7.570;2023-03-01T13:49:56;16.78;35.70
14154;DHT22;7157;53.144;7.570;2023-03-01T14:00:00;16.49;36.53
14154;DHT22;7157;53.144;7.570;2023-03-01T14:10:05;17.03;35.73
14154;DHT22;7157;53.144;7.570;2023-03-01T14:20:12;17.01;35.38
14154;DHT22;7157;53.144;7.570;2023-03-01T14:30:22;16.25;38.02
14154;DHT22;7157;53.144;7.570;2023-03-01T14:40:27;17.81;34.56
14154;DHT22;7157;53.144;7.570;2023-03-01T14:50:32;16.48;36.98
14154;DHT22;7157;53.144;7.570;2023-03-01T15:00:36;15.29;40.01
14154;DHT22;7157;53.144;7.570;2023-03-01T15:10:40;14.14;43.97
14154;DHT22;7157;53.144;7.570;2023-03-01T15:20:45;13.82;45.39
14154;DHT22;7157;53.144;7.570;2023-03-01T15:30:57;13.76;45.71
14154;DHT22;7157;53.144;7.570;2023-03-01T15:41:02;12.27;49.63
14154;DHT22;7157;53.144;7.570;2023-03-01T15:51:13;11.41;52.69
14154;DHT22;7157;53.144;7.570;2023-03-01T16:01:17;10.89;55.44
14154;DHT22;7157;53.144;7.570;2023-03-01T16:11:21;10.39;57.96
14154;DHT22;7157;53.144;7.570;2023-03-01T16:21:24;9.98;59.81
14154;DHT22;7157;53.144;7.570;2023-03-01T16:31:28;9.21;63.55
14154;DHT22;7157;53.144;7.570;2023-03-01T16:41:32;8.56;67.49
14154;DHT22;7157;53.144;7.570;2023-03-01T16:51:36;8.02;71.17
14154;DHT22;7157;53.144;7.570;2023-03-01T17:01:39;7.54;73.14
14154;DHT22;7157;53.144;7.570;2023-03-01T17:11:43;7.12;74.83
14154;DHT22;7157;53.144;7.570;2023-03-01T17:21:46;6.83;75.30
14154;DHT22;7157;53.144;7.570;2023-03-01T17:31:50;6.41;78.20
14154;DHT22;7157;53.144;7.570;2023-03-01T17:41:56;6.08;80.49
14154;DHT22;7157;53.144;7.570;2023-03-01T17:52:00;5.85;81.39
14154;DHT22;7157;53.144;7.570;2023-03-01T18:02:03;5.60;83.54
14154;DHT22;7157;53.144;7.570;2023-03-01T18:12:07;5.49;85.33
14154;DHT22;7157;53.144;7.570;2023-03-01T18:22:11;5.56;86.14
14154;DHT22;7157;53.144;7.570;2023-03-01T18:32:15;5.61;88.34
14154;DHT22;7157;53.144;7.570;2023-03-01T18:42:17;5.70;88.61
14154;DHT22;7157;53.144;7.570;2023-03-01T18:52:23;5.75;88.92
14154;DHT22;7157;53.144;7.570;2023-03-01T19:02:26;5.63;89.44
14154;DHT22;7157;53.144;7.570;2023-03-01T19:12:30;5.66;89.69
14154;DHT22;7157;53.144;7.570;2023-03-01T19:22:35;5.61;90.09
14154;DHT22;7157;53.144;7.570;2023-03-01T19:32:39;5.39;90.98
14154;DHT22;7157;53.144;7.570;2023-03-01T19:42:45;5.50;90.34
14154;DHT22;7157;53.144;7.570;2023-03-01T19:52:49;5.46;91.19
14154;DHT22;7157;53.144;7.570;2023-03-01T20:02:54;5.42;91.58
14154;DHT22;7157;53.144;7.570;2023-03-01T20:12:58;5.33;91.84
14154;DHT22;7157;53.144;7.570;2023-03-01T20:23:02;5.22;91.27
14154;DHT22;7157;53.144;7.570;2023-03-01T20:33:07;5.09;91.92
14154;DHT22;7157;53.144;7.570;2023-03-01T20:43:09;5.07;91.88
14154;DHT22;7157;53.144;7.570;2023-03-01T20:53:13;4.79;92.48
14154;DHT22;7157;53.144;7.570;2023-03-01T21:03:16;5.04;91.75
14154;DHT22;7157;53.144;7.570;2023-03-01T21:13:21;4.97;91.49
14154;DHT22;7157;53.144;7.570;2023-03-01T21:23:23;4.74;90.75
14154;DHT22;7157;53.144;7.570;2023-03-01T21:33:27;4.56;91.40
14154;DHT22;7157;53.144;7.570;2023-03-01T21:43:30;4.50;91.05
14154;DHT22;7157;53.144;7.570;2023-03-01T21:53:34;4.42;91.56
14154;DHT22;7157;53.144;7.570;2023-03-01T22:03:38;4.41;91.53
14154;DHT22;7157;53.144;7.570;2023-03-01T22:13:49;4.30;91.47
14154;DHT22;7157;53.144;7.570;2023-03-01T22:23:53;4.19;91.61
14154;DHT22;7157;53.144;7.570;2023-03-01T22:33:58;4.16;91.76
14154;DHT22;7157;53.144;7.570;2023-03-01T22:44:00;4.16;91.99
14154;DHT22;7157;53.144;7.570;2023-03-01T22:54:05;4.26;91.43
14154;DHT22;7157;53.144;7.570;2023-03-01T23:04:08;4.18;91.79
14154;DHT22;7157;53.144;7.570;2023-03-01T23:14:12;4.01;92.22
14154;DHT22;7157;53.144;7.570;2023-03-01T23:24:17;4.03;91.48
14154;DHT22;7157;53.144;7.570;2023-03-01T23:34:21;3.99;91.89
14154;DHT22;7157;53.144;7.570;2023-03-01T23:44:24;3.88;91.92
14154;DHT22;7157;53.144;7.570;2023-03-01T23:54:29;3.87;91.88
